M/V Crosby Hustler — WDA3941 — position and weather

sailwx.info

Track history (hours):
 
Tides and Currents Weather Stations Pressure Air Temp Water Temp Dewpoint Dewpoint Depression Visibility Wind Speed Wind Dir Waves Ship Positions

M/V Crosby Hustler

Owner: CROSBY INLAND MARINE LLC, GOLDEN MEADOW, LA. More information available from US FCC via Universal Licensing System and Coast Guard Vessel Documentation Center.

Last reported at 2015-May-01 19:27 UTC. Time now 2015-May-05 12:15 UTC.
Position N 29°26' W 094°50'.

Length 18 m; draft 9 m.

Type: Tug. MMSI: 366804030.

Date/timePositionNaut miles runAvg speedWind from/ knotsBaromVisibWave heightAir tempDewpointWater temp
2015-May-01 19:27N 29°26' W 094°50'6 6.7
2015-May-01 18:33N 29°31' W 094°53'6 6.4
2015-May-01 17:33N 29°37' W 094°57'6 6.4
2015-May-01 16:33N 29°42' W 095°01'5 4.9
2015-May-01 15:33N 29°45' W 095°06'6 5.7
2015-May-01 14:33N 29°44' W 095°13'2 1.6
2015-May-01 13:31N 29°43' W 095°14'0 0.0
2015-May-01 12:31N 29°43' W 095°14'0 0.0
2015-May-01 11:31N 29°43' W 095°14'0 0.0
2015-May-01 10:31N 29°43' W 095°14'0 0.0
2015-May-01 09:31N 29°43' W 095°14'0 0.0
2015-May-01 08:31N 29°43' W 095°14'0 0.0
2015-May-01 07:31N 29°43' W 095°14'0 0.0
2015-May-01 06:31N 29°43' W 095°14'0 0.0
2015-May-01 05:28N 29°43' W 095°14'0 0.0
2015-May-01 04:31N 29°43' W 095°14'0 0.0
2015-May-01 03:31N 29°43' W 095°14'0 0.0
2015-May-01 02:31N 29°43' W 095°14'0 0.0
2015-May-01 01:31N 29°43' W 095°14'4 3.7
2015-May-01 00:33N 29°45' W 095°11'4 4.5
2015-Apr-30 23:34N 29°46' W 095°06'1 0.9
2015-Apr-30 22:31N 29°47' W 095°06'0 0.0
2015-Apr-30 21:31N 29°47' W 095°06'0 0.0
2015-Apr-30 20:28N 29°47' W 095°06'0 0.0
2015-Apr-30 19:31N 29°47' W 095°06'0 0.0
2015-Apr-30 18:31N 29°47' W 095°06'0 0.0
2015-Apr-30 17:31N 29°47' W 095°06'0 0.0
2015-Apr-30 16:31N 29°47' W 095°06'0 0.0
2015-Apr-30 15:31N 29°47' W 095°06'0 0.0
2015-Apr-30 14:31N 29°47' W 095°06'0 0.0
2015-Apr-30 13:31N 29°47' W 095°06'0 0.0
2015-Apr-30 12:31N 29°47' W 095°06'0 0.0
2015-Apr-30 11:31N 29°47' W 095°06'0 0.0
2015-Apr-30 10:31N 29°47' W 095°06'0 0.0
2015-Apr-30 09:31N 29°47' W 095°06'0 0.0
2015-Apr-30 08:31N 29°47' W 095°06'0 0.0
2015-Apr-30 07:31N 29°47' W 095°06'0 0.0
2015-Apr-30 06:28N 29°47' W 095°06'0 0.0
2015-Apr-30 05:31N 29°47' W 095°06'0 0.0
2015-Apr-30 04:31N 29°47' W 095°06'0 0.0
2015-Apr-30 03:25N 29°47' W 095°06'0 0.0
2015-Apr-30 02:31N 29°47' W 095°06'0 0.0
2015-Apr-30 01:31N 29°47' W 095°06'0 0.0
2015-Apr-30 00:31N 29°47' W 095°06'1 1.0
2015-Apr-29 23:33N 29°46' W 095°06'0 0.5
2015-Apr-29 22:31N 29°45' W 095°06'0 0.5
2015-Apr-29 21:33N 29°46' W 095°06'1 0.9
2015-Apr-29 20:28N 29°47' W 095°06'0 0.0
2015-Apr-29 19:31N 29°47' W 095°06'0 0.0
2015-Apr-29 18:25N 29°47' W 095°06'0 0.0
2015-Apr-29 17:22N 29°47' W 095°06'0 0.0
2015-Apr-29 16:28N 29°47' W 095°06'0 0.0
2015-Apr-29 15:22N 29°47' W 095°06'0 0.0
2015-Apr-29 14:28N 29°47' W 095°06'0 0.0
2015-Apr-29 13:31N 29°47' W 095°06'0 0.0
2015-Apr-29 12:31N 29°47' W 095°06'0 0.0
2015-Apr-29 11:28N 29°47' W 095°06'0 0.0
2015-Apr-29 10:16N 29°47' W 095°06'0 0.0
2015-Apr-29 09:31N 29°47' W 095°06'0 0.0
2015-Apr-29 08:22N 29°47' W 095°06'0 0.0
2015-Apr-29 07:31N 29°47' W 095°06'0 0.0
2015-Apr-29 06:28N 29°47' W 095°06'0 0.0
2015-Apr-29 05:28N 29°47' W 095°06'0 0.0
2015-Apr-29 04:31N 29°47' W 095°06'0 0.0
2015-Apr-29 03:28N 29°47' W 095°06'1 1.4
2015-Apr-29 02:33N 29°46' W 095°06'0 0.0
2015-Apr-29 01:34N 29°46' W 095°06'1 0.7
2015-Apr-29 00:32N 29°46' W 095°06'0 0.5
2015-Apr-28 23:33N 29°46' W 095°06'5 4.7
2015-Apr-28 22:33N 29°43' W 095°01'5 5.3
2015-Apr-28 21:33N 29°39' W 094°58'6 6.4
2015-Apr-28 20:34N 29°33' W 094°55'7 6.4
2015-Apr-28 19:32N 29°27' W 094°51'91 2.1
2015-Apr-27 00:32N 30°12' W 093°19'  
Track history (hours):
 
Tides and Currents Weather Stations Pressure Air Temp Water Temp Dewpoint Dewpoint Depression Visibility Wind Speed Wind Dir Waves Ship Positions

M/V Crosby Hustler

Owner: CROSBY INLAND MARINE LLC, GOLDEN MEADOW, LA. More information available from US FCC via Universal Licensing System and Coast Guard Vessel Documentation Center.

Last reported at 2015-May-01 19:27 UTC. Time now 2015-May-05 12:15 UTC.
Position N 29°26' W 094°50'.

Length 18 m; draft 9 m.

Type: Tug. MMSI: 366804030.

Date/timePositionNaut miles runAvg speedWind from/ knotsBaromVisibWave heightAir tempDewpointWater temp
2015-May-01 19:27N 29°26' W 094°50'6 6.7
2015-May-01 18:33N 29°31' W 094°53'6 6.4
2015-May-01 17:33N 29°37' W 094°57'6 6.4
2015-May-01 16:33N 29°42' W 095°01'5 4.9
2015-May-01 15:33N 29°45' W 095°06'6 5.7
2015-May-01 14:33N 29°44' W 095°13'2 1.6
2015-May-01 13:31N 29°43' W 095°14'0 0.0
2015-May-01 12:31N 29°43' W 095°14'0 0.0
2015-May-01 11:31N 29°43' W 095°14'0 0.0
2015-May-01 10:31N 29°43' W 095°14'0 0.0
2015-May-01 09:31N 29°43' W 095°14'0 0.0
2015-May-01 08:31N 29°43' W 095°14'0 0.0
2015-May-01 07:31N 29°43' W 095°14'0 0.0
2015-May-01 06:31N 29°43' W 095°14'0 0.0
2015-May-01 05:28N 29°43' W 095°14'0 0.0
2015-May-01 04:31N 29°43' W 095°14'0 0.0
2015-May-01 03:31N 29°43' W 095°14'0 0.0
2015-May-01 02:31N 29°43' W 095°14'0 0.0
2015-May-01 01:31N 29°43' W 095°14'4 3.7
2015-May-01 00:33N 29°45' W 095°11'4 4.5
2015-Apr-30 23:34N 29°46' W 095°06'1 0.9
2015-Apr-30 22:31N 29°47' W 095°06'0 0.0
2015-Apr-30 21:31N 29°47' W 095°06'0 0.0
2015-Apr-30 20:28N 29°47' W 095°06'0 0.0
2015-Apr-30 19:31N 29°47' W 095°06'0 0.0
2015-Apr-30 18:31N 29°47' W 095°06'0 0.0
2015-Apr-30 17:31N 29°47' W 095°06'0 0.0
2015-Apr-30 16:31N 29°47' W 095°06'0 0.0
2015-Apr-30 15:31N 29°47' W 095°06'0 0.0
2015-Apr-30 14:31N 29°47' W 095°06'0 0.0
2015-Apr-30 13:31N 29°47' W 095°06'0 0.0
2015-Apr-30 12:31N 29°47' W 095°06'0 0.0
2015-Apr-30 11:31N 29°47' W 095°06'0 0.0
2015-Apr-30 10:31N 29°47' W 095°06'0 0.0
2015-Apr-30 09:31N 29°47' W 095°06'0 0.0
2015-Apr-30 08:31N 29°47' W 095°06'0 0.0
2015-Apr-30 07:31N 29°47' W 095°06'0 0.0
2015-Apr-30 06:28N 29°47' W 095°06'0 0.0
2015-Apr-30 05:31N 29°47' W 095°06'0 0.0
2015-Apr-30 04:31N 29°47' W 095°06'0 0.0
2015-Apr-30 03:25N 29°47' W 095°06'0 0.0
2015-Apr-30 02:31N 29°47' W 095°06'0 0.0
2015-Apr-30 01:31N 29°47' W 095°06'0 0.0
2015-Apr-30 00:31N 29°47' W 095°06'1 1.0
2015-Apr-29 23:33N 29°46' W 095°06'0 0.5
2015-Apr-29 22:31N 29°45' W 095°06'0 0.5
2015-Apr-29 21:33N 29°46' W 095°06'1 0.9
2015-Apr-29 20:28N 29°47' W 095°06'0 0.0
2015-Apr-29 19:31N 29°47' W 095°06'0 0.0
2015-Apr-29 18:25N 29°47' W 095°06'0 0.0
2015-Apr-29 17:22N 29°47' W 095°06'0 0.0
2015-Apr-29 16:28N 29°47' W 095°06'0 0.0
2015-Apr-29 15:22N 29°47' W 095°06'0 0.0
2015-Apr-29 14:28N 29°47' W 095°06'0 0.0
2015-Apr-29 13:31N 29°47' W 095°06'0 0.0
2015-Apr-29 12:31N 29°47' W 095°06'0 0.0
2015-Apr-29 11:28N 29°47' W 095°06'0 0.0
2015-Apr-29 10:16N 29°47' W 095°06'0 0.0
2015-Apr-29 09:31N 29°47' W 095°06'0 0.0
2015-Apr-29 08:22N 29°47' W 095°06'0 0.0
2015-Apr-29 07:31N 29°47' W 095°06'0 0.0
2015-Apr-29 06:28N 29°47' W 095°06'0 0.0
2015-Apr-29 05:28N 29°47' W 095°06'0 0.0
2015-Apr-29 04:31N 29°47' W 095°06'0 0.0
2015-Apr-29 03:28N 29°47' W 095°06'1 1.4
2015-Apr-29 02:33N 29°46' W 095°06'0 0.0
2015-Apr-29 01:34N 29°46' W 095°06'1 0.7
2015-Apr-29 00:32N 29°46' W 095°06'0 0.5
2015-Apr-28 23:33N 29°46' W 095°06'5 4.7
2015-Apr-28 22:33N 29°43' W 095°01'5 5.3
2015-Apr-28 21:33N 29°39' W 094°58'6 6.4
2015-Apr-28 20:34N 29°33' W 094°55'7 6.4
2015-Apr-28 19:32N 29°27' W 094°51'91 2.1
2015-Apr-27 00:32N 30°12' W 093°19'  

Dump ship's entire track history